Time;durP1;ratioP1;P1;durP2;ratioP2;P2;SDS_P1;SDS_P2;PMS_P1;PMS_P2;Temp;Humidity;BMP_temperature;BMP_pressure;BME280_temperature;BME280_humidity;BME280_pressure;Samples;Min_cycle;Max_cycle;Signal;HPM_P1;HPM_P2
2022/04/29 00:09:13;;;;;;;0.20;0.10;;;15.50;99.90;;;;;;25524161;23;20375;-72
2022/04/29 00:19:18;;;;;;;0.20;0.10;;;15.30;99.90;;;;;;25521785;23;20191;-73
2022/04/29 00:29:22;;;;;;;0.20;0.00;;;14.90;99.90;;;;;;25522872;23;20170;-72
2022/04/29 00:39:27;;;;;;;0.20;0.00;;;14.30;99.90;;;;;;25519241;23;20198;-73
2022/04/29 00:49:31;;;;;;;0.20;0.10;;;15.80;99.90;;;;;;25497548;23;20178;-72
2022/04/29 00:59:41;;;;;;;0.20;0.10;;;16.20;99.90;;;;;;25530349;23;20210;-75
2022/04/29 01:09:46;;;;;;;0.20;0.10;;;16.10;99.90;;;;;;25532780;23;20206;-72
2022/04/29 01:19:51;;;;;;;0.20;0.10;;;16.20;99.90;;;;;;25533335;23;20471;-72
2022/04/29 01:30:01;;;;;;;0.20;0.00;;;16.30;99.90;;;;;;25531010;23;20178;-72
2022/04/29 01:40:06;;;;;;;0.20;0.10;;;16.20;99.90;;;;;;25533319;23;20199;-72
2022/04/29 01:50:11;;;;;;;0.20;0.10;;;16.40;99.90;;;;;;25529414;23;20170;-72
2022/04/29 02:00:16;;;;;;;0.20;0.10;;;16.50;99.90;;;;;;25531739;23;20207;-72
2022/04/29 02:10:22;;;;;;;0.20;0.10;;;16.10;99.90;;;;;;25531924;23;20203;-72
2022/04/29 02:20:26;;;;;;;0.20;0.10;;;16.10;99.90;;;;;;25528681;23;20187;-73
2022/04/29 02:30:33;;;;;;;0.20;0.10;;;16.30;99.90;;;;;;25504254;23;20171;-72
2022/04/29 02:40:37;;;;;;;0.20;0.10;;;16.00;99.90;;;;;;25527719;23;20197;-72
2022/04/29 02:50:42;;;;;;;0.20;0.00;;;15.90;99.90;;;;;;25529891;23;20472;-71
2022/04/29 03:00:46;;;;;;;0.20;0.10;;;16.10;99.90;;;;;;25531546;23;20205;-71
2022/04/29 03:10:51;;;;;;;0.20;0.00;;;16.30;99.90;;;;;;25537688;23;20395;-71
2022/04/29 03:20:57;;;;;;;0.20;0.07;;;16.20;99.90;;;;;;25535798;23;20191;-72
2022/04/29 03:31:02;;;;;;;0.20;0.00;;;16.00;99.90;;;;;;25537539;23;20159;-74
2022/04/29 03:41:07;;;;;;;0.20;0.10;;;16.00;99.90;;;;;;25510070;23;20187;-74
2022/04/29 03:51:12;;;;;;;0.20;0.10;;;16.20;99.90;;;;;;25534718;23;20171;-73
2022/04/29 04:01:16;;;;;;;0.20;0.10;;;16.30;99.90;;;;;;25536030;23;20367;-72
2022/04/29 04:11:21;;;;;;;0.20;0.10;;;16.30;99.90;;;;;;25532987;23;20207;-72
2022/04/29 04:21:26;;;;;;;0.20;0.10;;;16.10;99.90;;;;;;25534439;23;20209;-72
2022/04/29 04:31:31;;;;;;;0.20;0.00;;;16.20;99.90;;;;;;25505382;23;20186;-72
2022/04/29 04:41:35;;;;;;;0.20;0.07;;;15.90;99.90;;;;;;25505972;23;20206;-72
2022/04/29 04:51:40;;;;;;;0.20;0.10;;;15.90;99.90;;;;;;25504003;23;20167;-75
2022/04/29 05:01:44;;;;;;;0.20;0.00;;;15.80;99.90;;;;;;25529702;23;20533;-70
2022/04/29 05:11:49;;;;;;;0.20;0.10;;;15.60;99.90;;;;;;25530129;23;20195;-70
2022/04/29 05:22:09;;;;;;;0.20;0.10;;;15.80;99.90;;;;;;25527233;23;20186;-70
2022/04/29 05:32:15;;;;;;;0.20;0.10;;;15.80;99.90;;;;;;25503726;23;20170;-70
2022/04/29 05:42:22;;;;;;;0.20;0.00;;;15.80;99.90;;;;;;25529637;23;20186;-73
2022/04/29 05:52:27;;;;;;;0.20;0.10;;;16.20;99.90;;;;;;25525311;23;20269;-73
2022/04/29 06:02:33;;;;;;;0.20;0.00;;;16.50;99.90;;;;;;25526231;23;20206;-72
2022/04/29 06:12:40;;;;;;;0.20;0.10;;;16.80;99.90;;;;;;25499963;23;20199;-73
2022/04/29 06:22:45;;;;;;;0.20;0.10;;;17.20;99.90;;;;;;25525835;23;20186;-71
2022/04/29 06:32:54;;;;;;;0.20;0.10;;;17.40;99.90;;;;;;25527048;23;20178;-71
2022/04/29 06:42:58;;;;;;;0.20;0.03;;;17.70;99.90;;;;;;25533548;23;20195;-71
2022/04/29 06:53:03;;;;;;;0.20;0.10;;;17.90;99.90;;;;;;25532756;23;20171;-72
2022/04/29 07:03:07;;;;;;;0.20;0.10;;;18.10;99.90;;;;;;25529427;23;20190;-72
2022/04/29 07:13:12;;;;;;;0.20;0.10;;;18.40;99.90;;;;;;25533524;23;20283;-72
2022/04/29 07:23:16;;;;;;;0.20;0.10;;;18.90;99.90;;;;;;25504669;23;20195;-74
2022/04/29 07:33:26;;;;;;;0.20;0.10;;;19.00;99.90;;;;;;25530618;23;20426;-75
2022/04/29 07:43:30;;;;;;;0.20;0.10;;;19.00;99.90;;;;;;25530674;23;20202;-73
2022/04/29 07:53:35;;;;;;;0.20;0.10;;;18.90;99.90;;;;;;25528495;23;20171;-71
2022/04/29 08:03:40;;;;;;;0.20;0.10;;;18.70;99.90;;;;;;25500876;23;20195;-71
2022/04/29 08:13:45;;;;;;;0.20;0.17;;;19.10;99.90;;;;;;25503393;23;20279;-69
2022/04/29 08:24:09;;;;;;;0.20;0.10;;;20.20;99.90;;;;;;25528059;23;20282;-69
2022/04/29 08:34:17;;;;;;;0.20;0.00;;;21.10;99.90;;;;;;25529219;23;20186;-73
2022/04/29 08:44:21;;;;;;;0.20;0.07;;;21.10;99.90;;;;;;25498854;23;20195;-70
2022/04/29 09:04:49;;;;;;;0.40;0.40;;;21.40;99.90;;;;;;25502530;23;20205;-69
2022/04/29 09:15:11;;;;;;;0.33;0.33;;;21.50;99.90;;;;;;25528889;23;20195;-72
2022/04/29 09:25:15;;;;;;;0.20;0.10;;;21.20;99.90;;;;;;25525318;23;20227;-67
2022/04/29 09:35:36;;;;;;;0.20;0.10;;;21.10;99.90;;;;;;25523380;23;20171;-69
2022/04/29 09:45:39;;;;;;;0.20;0.10;;;21.60;99.90;;;;;;25523271;23;20193;-69
2022/04/29 09:56:08;;;;;;;1.90;0.57;;;21.60;99.90;;;;;;25522997;23;20202;-69
2022/04/29 10:06:14;;;;;;;0.20;0.10;;;22.00;99.90;;;;;;25497366;23;20282;-71
2022/04/29 10:16:19;;;;;;;0.20;0.00;;;21.50;99.90;;;;;;25525587;23;20294;-74
2022/04/29 10:26:29;;;;;;;0.20;0.00;;;22.40;99.90;;;;;;25510313;23;20202;-70
2022/04/29 10:36:34;;;;;;;0.20;0.10;;;22.80;99.90;;;;;;25511032;23;20171;-69
2022/04/29 10:46:39;;;;;;;0.20;0.10;;;22.90;99.90;;;;;;25510185;23;20198;-69
2022/04/29 10:56:44;;;;;;;0.20;0.00;;;22.90;99.90;;;;;;25512582;23;20187;-69
2022/04/29 11:06:49;;;;;;;0.20;0.00;;;23.30;99.90;;;;;;25482171;23;20345;-70
2022/04/29 11:16:56;;;;;;;0.37;0.37;;;22.80;99.90;;;;;;25509393;23;20182;-70
2022/04/29 11:27:00;;;;;;;0.20;0.00;;;23.80;99.90;;;;;;25490166;23;20386;-70
2022/04/29 11:37:06;;;;;;;0.20;0.00;;;24.20;99.90;;;;;;25518374;23;20182;-72
2022/04/29 11:47:10;;;;;;;0.20;0.10;;;23.80;99.90;;;;;;25516326;23;20191;-71
2022/04/29 11:57:17;;;;;;;0.20;0.00;;;24.70;99.90;;;;;;25514468;23;20190;-70
2022/04/29 12:07:21;;;;;;;0.20;0.00;;;24.40;99.90;;;;;;25517939;23;20451;-70
2022/04/29 12:17:37;;;;;;;0.40;0.40;;;24.50;99.90;;;;;;25511781;23;20171;-70
2022/04/29 12:27:40;;;;;;;0.20;0.00;;;25.10;99.90;;;;;;25511494;23;20168;-73
2022/04/29 12:37:54;;;;;;;0.20;0.10;;;24.90;99.90;;;;;;25513001;23;20459;-72
2022/04/29 12:48:17;;;;;;;0.20;0.00;;;25.90;99.90;;;;;;25488096;23;20171;-71
2022/04/29 12:58:26;;;;;;;0.20;0.00;;;25.60;99.90;;;;;;25514454;23;20195;-70
2022/04/29 13:08:30;;;;;;;0.20;0.00;;;25.40;99.90;;;;;;25514567;23;20198;-72
2022/04/29 13:18:35;;;;;;;0.20;0.00;;;25.60;99.90;;;;;;25514887;23;20194;-72
2022/04/29 13:28:39;;;;;;;0.20;0.00;;;26.50;99.90;;;;;;25513035;23;20175;-70
2022/04/29 13:38:44;;;;;;;0.20;0.10;;;26.80;99.90;;;;;;25515296;23;20195;-70
2022/04/29 13:48:48;;;;;;;0.20;0.10;;;26.90;99.90;;;;;;25508957;23;20178;-70
2022/04/29 13:58:53;;;;;;;0.20;0.05;;;27.50;99.90;;;;;;25486607;23;20198;-70
2022/04/29 14:08:57;;;;;;;0.20;0.00;;;28.00;99.90;;;;;;25484286;23;20206;-72
2022/04/29 14:19:02;;;;;;;0.20;0.00;;;27.70;99.90;;;;;;25508415;23;20214;-72
2022/04/29 14:29:06;;;;;;;0.20;0.00;;;27.80;99.90;;;;;;25513105;23;20339;-70
2022/04/29 14:39:11;;;;;;;0.20;0.00;;;27.60;99.90;;;;;;25512252;23;20206;-73
2022/04/29 14:49:15;;;;;;;0.20;0.00;;;27.70;99.90;;;;;;25509453;23;20433;-74
2022/04/29 14:59:20;;;;;;;0.20;0.00;;;28.40;99.90;;;;;;25513090;23;20206;-73
2022/04/29 15:19:47;;;;;;;0.20;0.00;;;27.10;99.90;;;;;;25495305;23;20194;-68
2022/04/29 15:29:51;;;;;;;0.20;0.00;;;27.30;99.90;;;;;;25518493;23;20163;-69
2022/04/29 15:39:56;;;;;;;0.20;0.10;;;26.30;99.90;;;;;;25489761;23;20238;-69
2022/04/29 15:50:00;;;;;;;0.20;0.00;;;24.50;99.90;;;;;;25499381;23;20187;-68
2022/04/29 16:00:08;;;;;;;0.20;0.10;;;24.10;99.90;;;;;;25522649;23;20183;-72
2022/04/29 16:10:12;;;;;;;0.20;0.10;;;23.30;99.90;;;;;;25488938;23;20206;-69
2022/04/29 16:20:33;;;;;;;0.20;0.00;;;23.00;99.90;;;;;;25516222;23;20249;-72
2022/04/29 16:30:37;;;;;;;0.20;0.10;;;22.80;99.90;;;;;;25512803;23;20170;-73
2022/04/29 16:40:43;;;;;;;0.20;0.00;;;22.90;99.90;;;;;;25496822;23;20218;-73
2022/04/29 16:50:48;;;;;;;0.20;0.00;;;22.60;99.90;;;;;;25540782;23;20167;-71
2022/04/29 17:00:54;;;;;;;0.20;0.00;;;22.50;99.90;;;;;;25536870;23;20222;-72
2022/04/29 17:10:59;;;;;;;0.20;0.10;;;22.50;99.90;;;;;;25536394;23;20210;-73
2022/04/29 17:21:05;;;;;;;0.20;0.00;;;22.80;99.90;;;;;;25535206;23;20262;-72
2022/04/29 17:31:08;;;;;;;0.20;0.10;;;21.60;99.90;;;;;;25538207;23;20171;-72
2022/04/29 17:51:35;;;;;;;0.20;0.10;;;20.70;99.90;;;;;;25537860;23;20210;-72
2022/04/29 18:01:40;;;;;;;0.20;0.00;;;20.30;99.90;;;;;;25508502;23;20214;-72
2022/04/29 20:53:05;;;;;;;0.20;0.10;;;18.60;99.90;;;;;;25496593;23;20163;-81
2022/04/29 21:03:08;;;;;;;0.20;0.10;;;18.50;99.90;;;;;;25437178;23;20214;-69
2022/04/29 21:13:15;;;;;;;0.20;0.00;;;18.20;99.90;;;;;;25640628;23;20193;-69
2022/04/29 21:23:20;;;;;;;0.20;0.10;;;18.20;99.90;;;;;;25640788;23;20198;-69
2022/04/29 21:33:25;;;;;;;0.20;0.00;;;18.00;99.90;;;;;;25640146;23;20174;-69
2022/04/29 21:43:29;;;;;;;0.20;0.10;;;18.30;99.90;;;;;;25616441;23;20426;-68
2022/04/29 21:53:34;;;;;;;0.20;0.10;;;18.30;99.90;;;;;;25546591;23;20236;-75
2022/04/29 22:03:38;;;;;;;0.20;0.10;;;18.70;99.90;;;;;;25511540;23;20579;-72
2022/04/29 22:13:44;;;;;;;0.20;0.10;;;18.60;99.90;;;;;;25515070;23;20223;-72
2022/04/29 22:23:48;;;;;;;0.20;0.00;;;18.50;99.90;;;;;;25516188;23;20186;-71
2022/04/29 22:33:53;;;;;;;0.20;0.00;;;18.40;99.90;;;;;;25513025;23;20211;-72
2022/04/29 22:43:57;;;;;;;0.20;0.10;;;18.30;99.90;;;;;;25488240;23;20195;-71
2022/04/29 22:54:02;;;;;;;0.20;0.00;;;18.30;99.90;;;;;;25471101;23;20214;-71
2022/04/29 23:04:06;;;;;;;0.20;0.10;;;18.30;99.90;;;;;;25393278;23;20191;-69
2022/04/29 23:14:12;;;;;;;0.20;0.07;;;18.50;99.90;;;;;;25388530;23;20235;-70
2022/04/29 23:24:15;;;;;;;0.20;0.10;;;18.20;99.90;;;;;;25372581;23;20226;-69
2022/04/29 23:34:21;;;;;;;0.20;0.10;;;18.00;99.90;;;;;;25402167;23;20182;-71
2022/04/29 23:44:25;;;;;;;0.20;0.10;;;17.90;99.90;;;;;;25409281;23;20195;-70
2022/04/29 23:54:31;;;;;;;0.20;0.10;;;17.90;99.90;;;;;;25386199;23;20242;-71
